createdAt,value
2023-02-26T00:10:33.948Z,41451.97
2023-02-26T00:15:40.575Z,41551.69
2023-02-26T00:26:41.573Z,41545.72
2023-02-26T00:38:35.580Z,41320.31
2023-02-26T00:43:40.607Z,41254.50
2023-02-26T00:48:56.898Z,41214.63
2023-02-26T00:54:11.058Z,41276.44
2023-02-26T00:59:15.411Z,41322.31
2023-02-26T01:04:21.329Z,41444.00
2023-02-26T01:09:30.017Z,41457.94
2023-02-26T01:14:35.077Z,41424.03
2023-02-26T01:19:45.540Z,41601.56
2023-02-26T01:24:55.709Z,41697.31
2023-02-26T01:30:02.968Z,41665.41
2023-02-26T01:35:15.092Z,41795.06
2023-02-26T01:40:51.654Z,41850.91
2023-02-26T01:46:05.452Z,41958.63
2023-02-26T01:51:11.100Z,41958.63
2023-02-26T01:56:19.234Z,42054.38
2023-02-26T02:01:25.857Z,42032.44
2023-02-26T02:06:32.396Z,42028.47
2023-02-26T02:11:46.733Z,41914.75
2023-02-26T02:17:00.252Z,42206.00
2023-02-26T02:22:22.280Z,42217.97
2023-02-26T02:27:37.110Z,42253.88
2023-02-26T02:32:47.467Z,42309.75
2023-02-26T02:37:57.697Z,42347.66
2023-02-26T02:43:05.841Z,42313.75
2023-02-26T02:48:15.859Z,42495.28
2023-02-26T02:53:23.423Z,42447.41
2023-02-26T02:58:32.337Z,42495.28
2023-02-26T03:03:46.460Z,42509.25
2023-02-26T03:08:51.728Z,42481.34
2023-02-26T03:13:56.643Z,42507.25
2023-02-26T03:19:17.466Z,42624.97
2023-02-26T03:24:29.756Z,42704.78
2023-02-26T03:29:39.941Z,42878.38
2023-02-26T03:34:51.256Z,42904.31
2023-02-26T03:39:59.322Z,43095.88
2023-02-26T03:45:07.890Z,43227.59
2023-02-26T03:50:19.350Z,43283.47
2023-02-26T03:55:48.505Z,43191.66
2023-02-26T04:01:23.390Z,43183.69
2023-02-26T04:06:31.394Z,43265.50
2023-02-26T04:11:36.988Z,43385.25
2023-02-26T04:16:41.264Z,43479.03
2023-02-26T04:21:47.594Z,43660.63
2023-02-26T04:26:53.256Z,43694.56
2023-02-26T04:31:57.940Z,43632.69
2023-02-26T04:37:04.001Z,43666.63
2023-02-26T04:42:08.318Z,43574.81
2023-02-26T04:47:13.206Z,43566.84
2023-02-26T04:52:19.443Z,43522.94
2023-02-26T04:57:24.191Z,43475.03
2023-02-26T05:02:28.870Z,43357.31
2023-02-26T05:07:34.530Z,43419.16
2023-02-26T05:12:38.962Z,43455.09
2023-02-26T05:17:43.281Z,43489.00
2023-02-26T05:22:49.310Z,43495.00
2023-02-26T05:27:54.320Z,43588.78
2023-02-26T05:32:58.613Z,43608.75
2023-02-26T05:38:04.300Z,43538.91
2023-02-26T05:43:08.946Z,43626.72
2023-02-26T05:48:13.550Z,43722.50
2023-02-26T05:53:19.318Z,43806.34
2023-02-26T05:58:23.812Z,43848.25
2023-02-26T06:03:28.194Z,43902.13
2023-02-26T06:08:33.742Z,43916.09
2023-02-26T06:13:38.028Z,43928.09
2023-02-26T06:18:42.412Z,43926.09
2023-02-26T06:23:48.405Z,43928.09
2023-02-26T06:28:52.640Z,43886.16
2023-02-26T06:33:57.520Z,43934.06
2023-02-26T06:39:03.493Z,43890.16
2023-02-26T06:44:07.627Z,43892.16
2023-02-26T06:49:11.707Z,43993.94
2023-02-26T06:54:17.374Z,43975.97
2023-02-26T06:59:22.261Z,44041.84
2023-02-26T07:04:26.865Z,44113.69
2023-02-26T07:09:32.551Z,44085.75
2023-02-26T07:14:37.119Z,44153.63
2023-02-26T07:19:41.420Z,44133.66
2023-02-26T07:24:47.464Z,44123.69
2023-02-26T07:29:51.814Z,44137.66
2023-02-26T07:34:55.987Z,44161.59
2023-02-26T07:40:01.770Z,44205.53
2023-02-26T07:45:08.284Z,44223.47
2023-02-26T07:50:13.745Z,44275.38
2023-02-26T07:55:19.929Z,44291.34
2023-02-26T08:00:24.343Z,44287.34
2023-02-26T08:05:30.128Z,44341.25
2023-02-26T08:10:35.855Z,44343.25
2023-02-26T08:15:42.222Z,44421.09
2023-02-26T08:20:46.676Z,44397.16
2023-02-26T08:25:52.243Z,44311.31
2023-02-26T08:30:57.046Z,44169.59
2023-02-26T08:36:02.122Z,44129.66
2023-02-26T08:41:08.544Z,44217.50
2023-02-26T08:46:12.714Z,44341.25
2023-02-26T08:51:17.027Z,44223.47
2023-02-26T08:56:23.103Z,44490.97
2023-02-26T09:01:28.440Z,44698.56
2023-02-26T09:06:33.357Z,44784.41
2023-02-26T09:11:39.218Z,44780.41
2023-02-26T09:16:43.770Z,45055.91
2023-02-26T09:21:48.243Z,45313.47
2023-02-26T09:26:54.850Z,45515.13
2023-02-26T09:31:59.190Z,45610.97
2023-02-26T09:37:04.736Z,45595.00
2023-02-26T09:42:20.336Z,45563.06
2023-02-26T09:47:29.004Z,45604.97
2023-02-26T09:52:39.742Z,45585.00
2023-02-26T09:57:48.100Z,45698.81
2023-02-26T10:03:02.490Z,45700.81
2023-02-26T10:08:15.855Z,45427.28
2023-02-26T10:13:33.421Z,45177.69
2023-02-26T10:18:44.180Z,44864.25
2023-02-26T10:23:52.899Z,45023.97
2023-02-26T10:29:04.116Z,45249.56
2023-02-26T10:34:26.725Z,45341.41
2023-02-26T10:39:34.252Z,45349.41
2023-02-26T10:44:46.164Z,45371.38
2023-02-26T10:49:56.630Z,45433.25
2023-02-26T10:55:14.535Z,45465.22
2023-02-26T11:00:22.755Z,45551.06
2023-02-26T11:05:28.917Z,45545.06
2023-02-26T11:10:42.308Z,45537.09
2023-02-26T11:15:52.719Z,45519.13
2023-02-26T11:20:59.584Z,45515.13
2023-02-26T11:26:09.165Z,45531.09
2023-02-26T11:31:19.860Z,45509.13
2023-02-26T11:36:26.948Z,45473.19
2023-02-26T11:41:31.521Z,45421.28
2023-02-26T11:46:42.065Z,45389.34
2023-02-26T11:51:48.542Z,45447.25
2023-02-26T11:56:52.858Z,45347.41
2023-02-26T12:02:04.552Z,45309.47
2023-02-26T12:07:12.425Z,45307.47
2023-02-26T12:12:48.139Z,45329.44
2023-02-26T12:18:20.386Z,45325.44
2023-02-26T12:23:39.489Z,45363.38
2023-02-26T12:29:06.530Z,45421.28
2023-02-26T12:34:32.636Z,45421.28
2023-02-26T12:39:51.478Z,45423.28
2023-02-26T12:45:13.774Z,45421.28
2023-02-26T12:50:41.208Z,45451.22
2023-02-26T12:55:59.879Z,45467.22
2023-02-26T13:01:24.874Z,45455.22
2023-02-26T13:06:47.594Z,45375.38
2023-02-26T13:12:03.934Z,45373.38
2023-02-26T13:17:14.656Z,45333.44
2023-02-26T13:22:25.721Z,45337.44
2023-02-26T13:27:35.389Z,45391.34
2023-02-26T13:32:42.499Z,45379.34
2023-02-26T13:37:51.883Z,45319.47
2023-02-26T13:43:04.092Z,45325.44
2023-02-26T13:48:20.177Z,45353.41
2023-02-26T13:53:50.119Z,45361.38
2023-02-26T13:58:55.873Z,45369.38
2023-02-26T14:04:24.747Z,45431.28
2023-02-26T14:09:44.678Z,45383.34
2023-02-26T14:15:21.533Z,45361.38
2023-02-26T14:20:28.113Z,45427.28
2023-02-26T14:25:36.354Z,45497.16
2023-02-26T14:30:49.702Z,45417.28
2023-02-26T14:35:56.117Z,45463.22
2023-02-26T14:41:07.646Z,45443.25
2023-02-26T14:46:13.191Z,45435.25
2023-02-26T14:51:26.778Z,45411.31
2023-02-26T14:56:41.022Z,45395.31
2023-02-26T15:01:50.664Z,45371.38
2023-02-26T15:07:06.420Z,45377.34
2023-02-26T15:12:34.775Z,45323.44
2023-02-26T15:17:56.233Z,45311.47
2023-02-26T15:23:16.912Z,45299.50
2023-02-26T15:28:35.784Z,45227.63
2023-02-26T15:33:41.327Z,45241.59
2023-02-26T15:38:49.015Z,45257.56
2023-02-26T15:43:58.692Z,45291.50
2023-02-26T15:49:09.593Z,45263.56
2023-02-26T15:54:18.734Z,45253.56
2023-02-26T15:59:29.844Z,45251.56
2023-02-26T16:04:37.194Z,45253.56
2023-02-26T16:09:43.921Z,45231.59
2023-02-26T16:14:53.494Z,45173.72
2023-02-26T16:20:00.342Z,45117.81
2023-02-26T16:25:09.812Z,45067.91
2023-02-26T16:30:23.026Z,45031.97
2023-02-26T16:35:35.112Z,45047.94
2023-02-26T16:40:44.677Z,45041.94
2023-02-26T16:45:55.841Z,45019.97
2023-02-26T16:51:02.549Z,45029.97
2023-02-26T16:56:07.872Z,44970.06
2023-02-26T17:01:18.454Z,44988.03
2023-02-26T17:06:24.035Z,44968.06
2023-02-26T17:11:31.010Z,45023.97
2023-02-26T17:16:37.097Z,45000.00
2023-02-26T17:21:45.563Z,44980.06
2023-02-26T17:26:50.274Z,45033.97
2023-02-26T17:31:56.005Z,45016.00
2023-02-26T17:37:05.700Z,45043.94
2023-02-26T17:42:12.772Z,45019.97
2023-02-26T17:47:21.737Z,45019.97
2023-02-26T17:52:26.722Z,44984.03
2023-02-26T17:57:32.107Z,45037.94
2023-02-26T18:02:37.687Z,45071.88
2023-02-26T18:07:42.502Z,44978.06
2023-02-26T18:12:47.191Z,45016.00
2023-02-26T18:17:53.554Z,45021.97
2023-02-26T18:22:57.724Z,45029.97
2023-02-26T18:28:01.906Z,45043.94
2023-02-26T18:33:08.792Z,45075.88
2023-02-26T18:38:13.454Z,45039.94
2023-02-26T18:43:18.285Z,45067.91
2023-02-26T18:48:24.060Z,45063.91
2023-02-26T18:53:28.428Z,45081.88
2023-02-26T18:58:32.875Z,45049.94
2023-02-26T19:03:38.574Z,45085.88
2023-02-26T19:08:43.068Z,45059.91
2023-02-26T19:13:47.248Z,45085.88
2023-02-26T19:18:52.956Z,45121.81
2023-02-26T19:23:57.314Z,45175.72
2023-02-26T19:29:01.754Z,45155.75
2023-02-26T19:34:07.344Z,45187.69
2023-02-26T19:39:12.942Z,45179.69
2023-02-26T19:44:17.846Z,45203.66
2023-02-26T19:49:24.488Z,45163.72
2023-02-26T19:54:29.004Z,45179.69
2023-02-26T19:59:33.414Z,45175.72
2023-02-26T20:04:39.303Z,45167.72
2023-02-26T20:09:43.469Z,45113.81
2023-02-26T20:14:47.996Z,45049.94
2023-02-26T20:19:54.006Z,44950.09
2023-02-26T20:24:58.472Z,44868.25
2023-02-26T20:30:02.638Z,44684.59
2023-02-26T20:35:13.463Z,44530.88
2023-02-26T20:40:19.197Z,44393.16
2023-02-26T20:45:23.655Z,44273.38
2023-02-26T20:50:29.406Z,44205.53
2023-02-26T20:55:34.076Z,44051.81
2023-02-26T21:00:38.480Z,43972.00
2023-02-26T21:05:47.403Z,43940.06
2023-02-26T21:10:52.433Z,43860.22
2023-02-26T21:15:57.446Z,43864.22
2023-02-26T21:21:05.142Z,43926.09
2023-02-26T21:26:10.182Z,44013.91
2023-02-26T21:31:14.539Z,44003.94
2023-02-26T21:36:21.332Z,43999.94
2023-02-26T21:41:26.620Z,44103.72
2023-02-26T21:46:31.012Z,44085.75
2023-02-26T21:51:36.873Z,44141.66
2023-02-26T21:56:41.451Z,44149.63
2023-02-26T22:01:46.096Z,44239.44
2023-02-26T22:06:52.349Z,44299.34
2023-02-26T22:11:56.565Z,44301.34
2023-02-26T22:17:00.766Z,44329.28
2023-02-26T22:22:06.396Z,44421.09
2023-02-26T22:27:10.789Z,44471.00
2023-02-26T22:32:15.161Z,44455.03
2023-02-26T22:37:20.891Z,44506.94
2023-02-26T22:42:25.412Z,44530.88
2023-02-26T22:47:29.483Z,44564.81
2023-02-26T22:52:35.111Z,44574.81
2023-02-26T22:57:39.828Z,44572.81
2023-02-26T23:02:44.143Z,44624.72
2023-02-26T23:07:50.606Z,44602.75
2023-02-26T23:12:55.209Z,44614.72
2023-02-26T23:17:59.405Z,44632.69
2023-02-26T23:23:05.178Z,44642.66
2023-02-26T23:28:10.277Z,44684.59
2023-02-26T23:33:14.796Z,44704.56
2023-02-26T23:38:22.945Z,44656.66
2023-02-26T23:43:27.263Z,44678.59
2023-02-26T23:48:32.041Z,44656.66
2023-02-26T23:53:37.788Z,44626.69
2023-02-26T23:58:41.974Z,44608.75
